Time;durP1;ratioP1;P1;durP2;ratioP2;P2;SDS_P1;SDS_P2;PMS_P1;PMS_P2;Temp;Humidity;BMP_temperature;BMP_pressure;BME280_temperature;BME280_humidity;BME280_pressure;Samples;Min_cycle;Max_cycle;Signal;HPM_P1;HPM_P2
2023/03/12 00:00:24;;;;;;;;;;;;;;;;;;5042406;28;20014;-63
2023/03/12 00:02:51;;;;;;;;;;;;;;;;;;5031784;28;19998;-63
2023/03/12 00:05:18;;;;;;;;;;;;;;;;;;5032626;28;20002;-63
2023/03/12 00:07:45;;;;;;;;;;;;;;;;;;5031512;28;20382;-62
2023/03/12 00:10:12;;;;;;;;;;;;;;;;;;5031519;28;20002;-63
2023/03/12 00:12:39;;;;;;;;;;;;;;;;;;5032143;28;20009;-63
2023/03/12 00:15:06;;;;;;;;;;;;;;;;;;5031861;28;20009;-63
2023/03/12 00:17:33;;;;;;;;;;;;;;;;;;5030646;28;20479;-63
2023/03/12 00:20:00;;;;;;;;;;;;;;;;;;5032444;28;20022;-63
2023/03/12 00:22:27;;;;;;;;;;;;;;;;;;5032140;28;20002;-63
2023/03/12 00:24:54;;;;;;;;;;;;;;;;;;5031998;28;20002;-63
2023/03/12 00:27:21;;;;;;;;;;;;;;;;;;5049262;28;20045;-63
2023/03/12 00:29:48;;;;;;;;;;;;;;;;;;5051956;28;20021;-63
2023/03/12 00:32:15;;;;;;;;;;;;;;;;;;5051885;28;20005;-63
2023/03/12 00:34:42;;;;;;;;;;;;;;;;;;5052401;28;20009;-63
2023/03/12 00:37:09;;;;;;;;;;;;;;;;;;5052263;28;20024;-63
2023/03/12 00:39:36;;;;;;;;;;;;;;;;;;5049846;28;20018;-63
2023/03/12 00:42:03;;;;;;;;;;;;;;;;;;5035088;28;19993;-63
2023/03/12 00:44:30;;;;;;;;;;;;;;;;;;5050017;28;20080;-63
2023/03/12 00:46:57;;;;;;;;;;;;;;;;;;5052059;28;20092;-63
2023/03/12 00:49:24;;;;;;;;;;;;;;;;;;5035688;28;20097;-63
2023/03/12 00:51:51;;;;;;;;;;;;;;;;;;5031918;28;20009;-62
2023/03/12 00:54:18;;;;;;;;;;;;;;;;;;5031595;28;20002;-63
2023/03/12 00:56:45;;;;;;;;;;;;;;;;;;5031648;28;20014;-63
2023/03/12 00:59:12;;;;;;;;;;;;;;;;;;5042977;28;20036;-63
2023/03/12 01:01:39;;;;;;;;;;;;;;;;;;5050568;28;20017;-61
2023/03/12 01:04:06;;;;;;;;;;;;;;;;;;5038699;28;20096;-64
2023/03/12 01:06:33;;;;;;;;;;;;;;;;;;5031356;28;20091;-63
2023/03/12 01:09:00;;;;;;;;;;;;;;;;;;5030866;28;20017;-63
2023/03/12 01:11:27;;;;;;;;;;;;;;;;;;5031477;28;20009;-63
2023/03/12 01:13:54;;;;;;;;;;;;;;;;;;5034399;28;19994;-63
2023/03/12 01:16:21;;;;;;;;;;;;;;;;;;5050009;28;20368;-63
2023/03/12 01:18:48;;;;;;;;;;;;;;;;;;5051749;28;20063;-62
2023/03/12 01:21:14;;;;;;;;;;;;;;;;;;5051050;28;20018;-62
2023/03/12 01:23:41;;;;;;;;;;;;;;;;;;5051069;28;20001;-62
2023/03/12 01:26:08;;;;;;;;;;;;;;;;;;5039246;28;20002;-62
2023/03/12 01:28:35;;;;;;;;;;;;;;;;;;5033152;28;20096;-62
2023/03/12 01:31:02;;;;;;;;;;;;;;;;;;5034535;28;19998;-62
2023/03/12 01:33:29;;;;;;;;;;;;;;;;;;5035257;28;20356;-62
2023/03/12 01:35:56;;;;;;;;;;;;;;;;;;5034298;28;20002;-62
2023/03/12 01:38:23;;;;;;;;;;;;;;;;;;5035046;28;20018;-62
2023/03/12 01:40:50;;;;;;;;;;;;;;;;;;5040986;28;20492;-62
2023/03/12 01:43:17;;;;;;;;;;;;;;;;;;5054689;28;20452;-62
2023/03/12 01:45:44;;;;;;;;;;;;;;;;;;5052640;28;19993;-63
2023/03/12 01:48:11;;;;;;;;;;;;;;;;;;5054677;28;20021;-62
2023/03/12 01:50:38;;;;;;;;;;;;;;;;;;5054990;28;20001;-62
2023/03/12 01:53:05;;;;;;;;;;;;;;;;;;5034368;28;20356;-63
2023/03/12 01:55:33;;;;;;;1999.90;999.90;;;;;;;;;;5034717;28;20414;-62
2023/03/12 01:58:01;;;;;;;1999.90;999.90;;;;;;;;;;5039399;28;20564;-62
2023/03/12 02:00:28;;;;;;;1999.90;999.90;;;;;;;;;;5034166;28;20416;-62
2023/03/12 02:02:59;;;;;;;1999.90;999.90;;;;;;;;;;5033591;28;20645;-62
2023/03/12 02:05:29;;;;;;;1999.90;999.90;;;;;;;;;;5050184;28;20198;-62
2023/03/12 02:07:56;;;;;;;1999.90;999.90;;;;;;;;;;5053768;28;20227;-62
2023/03/12 02:10:23;;;;;;;1999.90;999.90;;;;;;;;;;5053532;28;20282;-62
2023/03/12 02:12:52;;;;;;;1999.90;999.90;;;;;;;;;;5053669;28;20753;-62
2023/03/12 02:15:19;;;;;;;1999.90;999.90;;;;;;;;;;5051754;28;20206;-62
2023/03/12 02:17:47;;;;;;;1999.90;999.90;;;;;;;;;;5047296;28;20290;-62
2023/03/12 02:20:16;;;;;;;1999.90;999.90;;;;;;;;;;5034051;28;20225;-62
2023/03/12 02:22:45;;;;;;;1999.90;999.90;;;;;;;;;;5032790;28;20199;-62
2023/03/12 02:25:22;;;;;;;1999.90;999.90;;;;;;;;;;5033521;28;20299;-63
2023/03/12 02:27:49;;;;;;;1999.90;999.90;;;;;;;;;;5032144;28;20539;-63
2023/03/12 02:30:17;;;;;;;1999.90;999.90;;;;;;;;;;5032444;28;20202;-62
2023/03/12 02:32:44;;;;;;;1999.90;999.90;;;;;;;;;;5032595;28;20440;-62
2023/03/12 02:35:12;;;;;;;1999.90;999.90;;;;;;;;;;5032409;28;20877;-62
2023/03/12 02:37:47;;;;;;;1999.90;999.90;;;;;;;;;;5032153;28;20432;-63
2023/03/12 02:40:17;;;;;;;1999.90;999.90;;;;;;;;;;5032572;28;20308;-63
2023/03/12 02:42:46;;;;;;;1999.90;999.90;;;;;;;;;;5053368;28;20213;-62
2023/03/12 02:45:13;;;;;;;1999.90;999.90;;;;;;;;;;5053323;28;20198;-62
2023/03/12 02:47:40;;;;;;;1999.90;999.90;;;;;;;;;;5049334;28;20198;-63
2023/03/12 02:50:08;;;;;;;1999.90;999.90;;;;;;;;;;5048380;28;20207;-63
2023/03/12 02:52:36;;;;;;;1999.90;999.90;;;;;;;;;;5050984;28;20285;-63
2023/03/12 02:55:04;;;;;;;1999.90;999.90;;;;;;;;;;5053412;28;20691;-62
2023/03/12 02:57:31;;;;;;;1999.90;999.90;;;;;;;;;;5050359;28;20221;-62
2023/03/12 02:59:59;;;;;;;1999.90;999.90;;;;;;;;;;5037556;28;20310;-62
2023/03/12 03:02:26;;;;;;;1999.90;999.90;;;;;;;;;;5032828;28;20672;-62
2023/03/12 03:04:54;;;;;;;1999.90;999.90;;;;;;;;;;5048882;28;20205;-62
2023/03/12 03:07:21;;;;;;;1999.90;999.90;;;;;;;;;;5052779;28;20682;-62
2023/03/12 03:09:48;;;;;;;1999.90;999.90;;;;;;;;;;5043612;28;20226;-62
2023/03/12 03:12:15;;;;;;;1999.90;999.90;;;;;;;;;;5032503;28;20202;-62
2023/03/12 03:14:42;;;;;;;1999.90;999.90;;;;;;;;;;5032862;28;20670;-62
2023/03/12 03:17:10;;;;;;;1999.90;999.90;;;;;;;;;;5033000;28;20195;-62
2023/03/12 03:19:37;;;;;;;1999.90;999.90;;;;;;;;;;5034262;28;20221;-63
2023/03/12 03:22:05;;;;;;;1999.90;999.90;;;;;;;;;;5050458;28;20498;-63
2023/03/12 03:24:32;;;;;;;1999.90;999.90;;;;;;;;;;5052623;28;20209;-63
2023/03/12 03:26:59;;;;;;;1999.90;999.90;;;;;;;;;;5049724;28;20204;-62
2023/03/12 03:29:26;;;;;;;1999.90;999.90;;;;;;;;;;5031419;28;20223;-63
2023/03/12 03:31:53;;;;;;;1999.90;999.90;;;;;;;;;;5031325;28;20191;-63
2023/03/12 03:34:21;;;;;;;1999.90;999.90;;;;;;;;;;5041902;28;20206;-63
2023/03/12 03:36:48;;;;;;;1999.90;999.90;;;;;;;;;;5051818;28;20209;-62
2023/03/12 03:39:16;;;;;;;1999.90;999.90;;;;;;;;;;5033587;28;20234;-63
2023/03/12 03:41:45;;;;;;;1999.90;999.90;;;;;;;;;;5051041;28;20312;-62
2023/03/12 03:44:12;;;;;;;1999.90;999.90;;;;;;;;;;5052478;28;20207;-63
2023/03/12 03:46:39;;;;;;;1999.90;999.90;;;;;;;;;;5051257;28;20720;-63
2023/03/12 03:49:06;;;;;;;1999.90;999.90;;;;;;;;;;5051964;28;20313;-62
2023/03/12 03:51:35;;;;;;;1999.90;999.90;;;;;;;;;;5051223;28;20194;-63
2023/03/12 03:54:02;;;;;;;1999.90;999.90;;;;;;;;;;5050030;28;20201;-63
2023/03/12 03:56:29;;;;;;;1999.90;999.90;;;;;;;;;;5033722;28;20199;-62
2023/03/12 03:58:56;;;;;;;1999.90;999.90;;;;;;;;;;5031846;28;20225;-62
2023/03/12 04:01:23;;;;;;;1999.90;999.90;;;;;;;;;;5046691;28;20226;-62
2023/03/12 04:03:50;;;;;;;1999.90;999.90;;;;;;;;;;5040418;28;20928;-62
2023/03/12 04:06:17;;;;;;;1999.90;999.90;;;;;;;;;;5050958;28;20509;-62
2023/03/12 04:08:46;;;;;;;1999.90;999.90;;;;;;;;;;5040439;28;20591;-62
2023/03/12 04:11:14;;;;;;;1999.90;999.90;;;;;;;;;;5043661;28;20194;-62
2023/03/12 04:13:42;;;;;;;1999.90;999.90;;;;;;;;;;5051344;28;20427;-62
2023/03/12 04:16:09;;;;;;;1999.90;999.90;;;;;;;;;;5050122;28;20467;-62
2023/03/12 04:18:36;;;;;;;1999.90;999.90;;;;;;;;;;5050749;28;20430;-62
2023/03/12 04:21:04;;;;;;;1999.90;999.90;;;;;;;;;;5050959;28;20446;-62
2023/03/12 04:23:31;;;;;;;1999.90;999.90;;;;;;;;;;5050059;28;20409;-62
2023/03/12 04:25:59;;;;;;;1999.90;999.90;;;;;;;;;;5049795;28;20195;-62
2023/03/12 04:28:27;;;;;;;1999.90;999.90;;;;;;;;;;5051699;28;20350;-62
2023/03/12 04:30:58;;;;;;;1999.90;999.90;;;;;;;;;;5051568;28;20191;-62
2023/03/12 04:33:25;;;;;;;1999.90;999.90;;;;;;;;;;5049677;28;20199;-62
2023/03/12 04:35:53;;;;;;;1999.90;999.90;;;;;;;;;;5052020;28;20045;-62
2023/03/12 04:38:20;;;;;;;1999.90;999.90;;;;;;;;;;5037562;28;20528;-62
2023/03/12 04:40:47;;;;;;;1999.90;999.90;;;;;;;;;;5048451;28;20793;-62
2023/03/12 04:43:19;;;;;;;1999.90;999.90;;;;;;;;;;5050548;28;20682;-62
2023/03/12 04:45:46;;;;;;;1999.90;999.90;;;;;;;;;;5047384;28;20548;-62
2023/03/12 04:48:13;;;;;;;1999.90;999.90;;;;;;;;;;5065040;22;20451;-64
2023/03/12 04:50:40;;;;;;;1999.90;999.90;;;;;;;;;;5050199;28;20676;-64
2023/03/12 04:53:08;;;;;;;1999.90;999.90;;;;;;;;;;5045054;28;20791;-64
2023/03/12 04:55:35;;;;;;;1999.90;999.90;;;;;;;;;;5030576;28;20433;-64
2023/03/12 04:58:02;;;;;;;1999.90;999.90;;;;;;;;;;5035305;28;20477;-65
2023/03/12 05:00:28;;;;;;;;;;;;;;;;;;5051422;28;20576;-64
2023/03/12 05:02:57;;;;;;;1999.90;999.90;;;;;;;;;;5047858;28;20421;-64
2023/03/12 05:05:24;;;;;;;1999.90;999.90;;;;;;;;;;5054933;28;20686;-63
2023/03/12 05:07:51;;;;;;;1999.90;999.90;;;;;;;;;;5055473;28;20568;-63
2023/03/12 05:10:18;;;;;;;1999.90;999.90;;;;;;;;;;5037689;28;20223;-63
2023/03/12 05:12:45;;;;;;;1999.90;999.90;;;;;;;;;;5034872;28;20219;-63
2023/03/12 05:15:12;;;;;;;1999.90;999.90;;;;;;;;;;5034328;28;20203;-63
2023/03/12 05:17:39;;;;;;;1999.90;999.90;;;;;;;;;;5034937;28;20214;-63
2023/03/12 05:20:09;;;;;;;1999.90;999.90;;;;;;;;;;5034932;28;20234;-64
2023/03/12 05:22:36;;;;;;;1999.90;999.90;;;;;;;;;;5046802;28;20199;-63
2023/03/12 05:25:03;;;;;;;1999.90;999.90;;;;;;;;;;5054915;28;20198;-63
2023/03/12 05:27:30;;;;;;;1999.90;999.90;;;;;;;;;;5054595;28;20201;-63
2023/03/12 05:29:57;;;;;;;1999.90;999.90;;;;;;;;;;5051710;28;20558;-63
2023/03/12 05:32:24;;;;;;;1999.90;999.90;;;;;;;;;;5054533;28;20219;-63
2023/03/12 05:34:51;;;;;;;1999.90;999.90;;;;;;;;;;5054788;28;20603;-63
2023/03/12 05:37:20;;;;;;;1999.90;999.90;;;;;;;;;;5034227;28;20677;-63
2023/03/12 05:39:47;;;;;;;1999.90;999.90;;;;;;;;;;5033354;28;20431;-63
2023/03/12 05:42:14;;;;;;;1999.90;999.90;;;;;;;;;;5034886;28;20202;-63
2023/03/12 05:44:41;;;;;;;1999.90;999.90;;;;;;;;;;5034954;28;20202;-63
2023/03/12 05:47:09;;;;;;;1999.90;999.90;;;;;;;;;;5033500;28;20203;-63
2023/03/12 05:49:37;;;;;;;1999.90;999.90;;;;;;;;;;5033458;28;20327;-63
2023/03/12 05:52:04;;;;;;;1999.90;999.90;;;;;;;;;;5034353;28;20580;-63
2023/03/12 05:54:33;;;;;;;1999.90;999.90;;;;;;;;;;5032611;28;20661;-63
2023/03/12 05:57:01;;;;;;;1999.90;999.90;;;;;;;;;;5034303;28;20205;-63
2023/03/12 05:59:29;;;;;;;1999.90;999.90;;;;;;;;;;5049701;28;20244;-63
2023/03/12 06:01:56;;;;;;;1999.90;999.90;;;;;;;;;;5039123;28;20199;-63
2023/03/12 06:04:23;;;;;;;1999.90;999.90;;;;;;;;;;5045343;28;20198;-63
2023/03/12 06:06:50;;;;;;;1999.90;999.90;;;;;;;;;;5040483;28;20199;-63
2023/03/12 06:09:17;;;;;;;1999.90;999.90;;;;;;;;;;5034183;28;20310;-63
2023/03/12 06:11:46;;;;;;;1999.90;999.90;;;;;;;;;;5032838;28;20219;-63
2023/03/12 06:14:13;;;;;;;1999.90;999.90;;;;;;;;;;5033767;28;20203;-63
2023/03/12 06:16:40;;;;;;;1999.90;999.90;;;;;;;;;;5033334;28;20295;-63
2023/03/12 06:19:12;;;;;;;1999.90;999.90;;;;;;;;;;5033441;28;20712;-63
2023/03/12 06:21:39;;;;;;;1999.90;999.90;;;;;;;;;;5033922;28;20201;-63
2023/03/12 06:24:07;;;;;;;1999.90;999.90;;;;;;;;;;5033537;28;20214;-63
2023/03/12 06:26:34;;;;;;;1999.90;999.90;;;;;;;;;;5033618;28;20572;-63
2023/03/12 06:29:03;;;;;;;1999.90;999.90;;;;;;;;;;5033864;28;20215;-63
2023/03/12 06:31:30;;;;;;;1999.90;999.90;;;;;;;;;;5033384;28;20215;-63
2023/03/12 06:33:57;;;;;;;1999.90;999.90;;;;;;;;;;5038920;28;20730;-64
2023/03/12 06:36:24;;;;;;;1999.90;999.90;;;;;;;;;;5053498;28;20204;-63
2023/03/12 06:38:51;;;;;;;1999.90;999.90;;;;;;;;;;5053193;28;20219;-63
2023/03/12 06:41:19;;;;;;;1999.90;999.90;;;;;;;;;;5053540;28;20202;-63
2023/03/12 06:43:46;;;;;;;1999.90;999.90;;;;;;;;;;5053149;28;20194;-63
2023/03/12 06:46:16;;;;;;;1999.90;999.90;;;;;;;;;;5053474;28;20585;-63
2023/03/12 06:48:45;;;;;;;1999.90;999.90;;;;;;;;;;5051210;28;20226;-62
2023/03/12 06:51:13;;;;;;;1999.90;999.90;;;;;;;;;;5035980;28;20200;-64
2023/03/12 06:53:40;;;;;;;1999.90;999.90;;;;;;;;;;5033543;28;20306;-64
2023/03/12 06:56:07;;;;;;;1999.90;999.90;;;;;;;;;;5038564;28;20191;-64
2023/03/12 06:58:34;;;;;;;1999.90;999.90;;;;;;;;;;5033266;28;20215;-64
2023/03/12 07:01:02;;;;;;;1999.90;999.90;;;;;;;;;;5042106;28;20201;-64
2023/03/12 07:03:30;;;;;;;1999.90;999.90;;;;;;;;;;5049459;28;20222;-64
2023/03/12 07:05:57;;;;;;;1999.90;999.90;;;;;;;;;;5052633;28;20198;-64
2023/03/12 07:08:25;;;;;;;1999.90;999.90;;;;;;;;;;5048586;28;20225;-64
2023/03/12 07:10:52;;;;;;;1999.90;999.90;;;;;;;;;;5052502;28;20194;-64
2023/03/12 07:13:19;;;;;;;1999.90;999.90;;;;;;;;;;5048453;28;20222;-64
2023/03/12 07:15:46;;;;;;;1999.90;999.90;;;;;;;;;;5050722;28;20199;-64
2023/03/12 07:18:13;;;;;;;1999.90;999.90;;;;;;;;;;5043705;28;20203;-64
2023/03/12 07:20:43;;;;;;;1999.90;999.90;;;;;;;;;;5050722;28;20199;-63
2023/03/12 07:23:10;;;;;;;1999.90;999.90;;;;;;;;;;5049921;28;20194;-64
2023/03/12 07:25:37;;;;;;;1999.90;999.90;;;;;;;;;;5050441;28;20202;-64
2023/03/12 07:28:05;;;;;;;1999.90;999.90;;;;;;;;;;5050767;28;20682;-64
2023/03/12 07:30:33;;;;;;;1999.90;999.90;;;;;;;;;;5047724;28;20206;-64
2023/03/12 07:33:00;;;;;;;1999.90;999.90;;;;;;;;;;5052087;28;20215;-64
2023/03/12 07:35:27;;;;;;;1999.90;999.90;;;;;;;;;;5046732;28;20206;-64
2023/03/12 07:37:56;;;;;;;1999.90;999.90;;;;;;;;;;5031585;28;20237;-64
2023/03/12 07:40:23;;;;;;;1999.90;999.90;;;;;;;;;;5034939;28;20225;-64
2023/03/12 07:42:50;;;;;;;1999.90;999.90;;;;;;;;;;5036367;28;20191;-63
2023/03/12 07:45:17;;;;;;;1999.90;999.90;;;;;;;;;;5042640;28;20205;-65
2023/03/12 07:47:45;;;;;;;1999.90;999.90;;;;;;;;;;5051732;28;20207;-64
2023/03/12 07:50:12;;;;;;;1999.90;999.90;;;;;;;;;;5050597;28;20222;-62
2023/03/12 07:52:39;;;;;;;1999.90;999.90;;;;;;;;;;5050485;28;20297;-64
2023/03/12 07:55:09;;;;;;;1999.90;999.90;;;;;;;;;;5043064;28;20196;-64
2023/03/12 07:57:36;;;;;;;1999.90;999.90;;;;;;;;;;5050824;28;20197;-64
2023/03/12 08:00:06;;;;;;;1999.90;999.90;;;;;;;;;;5051887;28;20309;-64
2023/03/12 08:02:33;;;;;;;1999.90;999.90;;;;;;;;;;5049453;28;20249;-64
2023/03/12 08:05:00;;;;;;;1999.90;999.90;;;;;;;;;;5051928;28;20191;-63
2023/03/12 08:07:31;;;;;;;1999.90;999.90;;;;;;;;;;5041090;28;20203;-63
2023/03/12 08:09:58;;;;;;;1999.90;999.90;;;;;;;;;;5036879;28;20211;-63
2023/03/12 08:12:26;;;;;;;1999.90;999.90;;;;;;;;;;5032474;28;20230;-63
2023/03/12 08:14:53;;;;;;;1999.90;999.90;;;;;;;;;;5031813;28;20202;-63
2023/03/12 08:17:20;;;;;;;1999.90;999.90;;;;;;;;;;5042081;28;20190;-63
2023/03/12 08:19:48;;;;;;;1999.90;999.90;;;;;;;;;;5049900;28;20218;-63
2023/03/12 08:22:15;;;;;;;1999.90;999.90;;;;;;;;;;5044858;28;20198;-64
2023/03/12 08:24:42;;;;;;;1999.90;999.90;;;;;;;;;;5049600;28;20225;-64
2023/03/12 08:27:10;;;;;;;1999.90;999.90;;;;;;;;;;5049450;28;20203;-64
2023/03/12 08:29:39;;;;;;;1999.90;999.90;;;;;;;;;;5047360;28;20222;-64
2023/03/12 08:32:06;;;;;;;1999.90;999.90;;;;;;;;;;5041359;28;20219;-64
2023/03/12 08:34:34;;;;;;;1999.90;999.90;;;;;;;;;;5051478;28;20607;-64
2023/03/12 08:37:01;;;;;;;1999.90;999.90;;;;;;;;;;5050006;28;20195;-64
2023/03/12 08:39:28;;;;;;;1999.90;999.90;;;;;;;;;;5052995;28;20297;-64
2023/03/12 08:41:55;;;;;;;1999.90;999.90;;;;;;;;;;5051886;28;20281;-62
2023/03/12 08:44:23;;;;;;;1999.90;999.90;;;;;;;;;;5035612;28;20209;-64
2023/03/12 08:46:51;;;;;;;1999.90;999.90;;;;;;;;;;5035829;28;20627;-62
2023/03/12 08:49:18;;;;;;;1999.90;999.90;;;;;;;;;;5037115;28;20222;-63
2023/03/12 08:51:45;;;;;;;1999.90;999.90;;;;;;;;;;5054775;28;20213;-62
2023/03/12 08:54:12;;;;;;;1999.90;999.90;;;;;;;;;;5052510;28;20226;-63
2023/03/12 08:56:42;;;;;;;1999.90;999.90;;;;;;;;;;5055216;28;20190;-63
2023/03/12 08:59:09;;;;;;;1999.90;999.90;;;;;;;;;;5053561;28;20305;-63
2023/03/12 09:01:36;;;;;;;1999.90;999.90;;;;;;;;;;5055337;28;20191;-62
2023/03/12 09:04:06;;;;;;;1999.90;999.90;;;;;;;;;;5050608;28;20190;-62
2023/03/12 09:06:34;;;;;;;1999.90;999.90;;;;;;;;;;5052343;28;20195;-62
2023/03/12 09:09:04;;;;;;;1999.90;999.90;;;;;;;;;;5053861;28;20301;-62
2023/03/12 09:11:31;;;;;;;1999.90;999.90;;;;;;;;;;5054855;28;20220;-63
2023/03/12 09:13:59;;;;;;;1999.90;999.90;;;;;;;;;;5049810;28;20215;-62
2023/03/12 09:16:26;;;;;;;1999.90;999.90;;;;;;;;;;5048320;28;20195;-63
2023/03/12 09:18:53;;;;;;;1999.90;999.90;;;;;;;;;;5049488;28;20210;-62
2023/03/12 09:21:22;;;;;;;1999.90;999.90;;;;;;;;;;5053351;28;20202;-62
2023/03/12 09:23:49;;;;;;;1999.90;999.90;;;;;;;;;;5047986;28;20206;-62
2023/03/12 09:26:16;;;;;;;1999.90;999.90;;;;;;;;;;5047157;28;20194;-72
2023/03/12 09:28:43;;;;;;;1999.90;999.90;;;;;;;;;;5043609;28;20222;-61
2023/03/12 09:31:11;;;;;;;1999.90;999.90;;;;;;;;;;5045660;28;20213;-61
2023/03/12 09:33:38;;;;;;;1999.90;999.90;;;;;;;;;;5045499;28;21405;-61
2023/03/12 09:36:05;;;;;;;1999.90;999.90;;;;;;;;;;5045270;28;20195;-61
2023/03/12 09:38:34;;;;;;;1999.90;999.90;;;;;;;;;;5051471;28;20218;-61
2023/03/12 09:41:03;;;;;;;1999.90;999.90;;;;;;;;;;5038823;28;20203;-61
2023/03/12 09:43:34;;;;;;;1999.90;999.90;;;;;;;;;;5041039;28;20665;-62
2023/03/12 09:46:02;;;;;;;1999.90;999.90;;;;;;;;;;5051112;28;20201;-61
2023/03/12 09:48:33;;;;;;;1999.90;999.90;;;;;;;;;;5052368;28;20215;-61
2023/03/12 09:51:02;;;;;;;1999.90;999.90;;;;;;;;;;5048951;28;20232;-61
2023/03/12 09:53:30;;;;;;;1999.90;999.90;;;;;;;;;;5052041;28;20683;-61
2023/03/12 09:56:00;;;;;;;1999.90;999.90;;;;;;;;;;5052979;28;20203;-61
2023/03/12 09:58:28;;;;;;;1999.90;999.90;;;;;;;;;;5052812;28;20309;-61
2023/03/12 10:01:00;;;;;;;1999.90;999.90;;;;;;;;;;5054033;28;20199;-61
2023/03/12 10:03:32;;;;;;;1999.90;999.90;;;;;;;;;;5039403;28;20190;-61
2023/03/12 10:06:07;;;;;;;1999.90;999.90;;;;;;;;;;5054284;28;20194;-61
2023/03/12 10:08:38;;;;;;;1999.90;999.90;;;;;;;;;;5052936;28;20213;-61
2023/03/12 10:11:12;;;;;;;1999.90;999.90;;;;;;;;;;5053548;28;20199;-61
2023/03/12 10:13:51;;;;;;;1999.90;999.90;;;;;;;;;;5052139;28;20218;-61
2023/03/12 10:16:24;;;;;;;1999.90;999.90;;;;;;;;;;5049263;28;20195;-62
2023/03/12 10:19:02;;;;;;;1999.90;999.90;;;;;;;;;;5040926;28;20219;-61
2023/03/12 10:21:31;;;;;;;1999.90;999.90;;;;;;;;;;5045783;28;20575;-61
2023/03/12 10:24:08;;;;;;;1999.90;999.90;;;;;;;;;;5053708;28;20198;-62
2023/03/12 10:26:38;;;;;;;1999.90;999.90;;;;;;;;;;5052246;28;20195;-61
2023/03/12 10:29:09;;;;;;;1999.90;999.90;;;;;;;;;;5053253;28;20211;-61
2023/03/12 10:31:37;;;;;;;1999.90;999.90;;;;;;;;;;5052416;28;20195;-61
2023/03/12 10:34:13;;;;;;;1999.90;999.90;;;;;;;;;;5049952;28;20691;-61
2023/03/12 10:36:40;;;;;;;1999.90;999.90;;;;;;;;;;5047193;28;20593;-62
2023/03/12 10:39:13;;;;;;;1999.90;999.90;;;;;;;;;;5053592;28;20587;-61
2023/03/12 10:41:43;;;;;;;1999.90;999.90;;;;;;;;;;5049032;28;20205;-61
2023/03/12 10:44:15;;;;;;;1999.90;999.90;;;;;;;;;;5044131;28;20686;-61
2023/03/12 10:46:58;;;;;;;1999.90;999.90;;;;;;;;;;5050007;28;20316;-62
2023/03/12 10:49:29;;;;;;;1999.90;999.90;;;;;;;;;;5045279;22;20238;-61
2023/03/12 10:51:58;;;;;;;1999.90;999.90;;;;;;;;;;5045014;28;20214;-61
2023/03/12 10:54:28;;;;;;;1999.90;999.90;;;;;;;;;;5047330;28;20215;-59
2023/03/12 10:56:56;;;;;;;1999.90;999.90;;;;;;;;;;5052632;28;20195;-59
2023/03/12 10:59:27;;;;;;;1999.90;999.90;;;;;;;;;;5051620;28;20215;-60
2023/03/12 11:01:54;;;;;;;1999.90;999.90;;;;;;;;;;5039218;28;20191;-60
2023/03/12 11:04:23;;;;;;;1999.90;999.90;;;;;;;;;;5051865;28;20562;-60
2023/03/12 11:07:21;;;;;;;1999.90;999.90;;;;;;;;;;5050351;28;20210;-59
2023/03/12 11:10:03;;;;;;;1999.90;999.90;;;;;;;;;;4987190;28;20235;-59
2023/03/12 11:12:31;;;;;;;1999.90;999.90;;;;;;;;;;5037723;28;20249;-59
2023/03/12 11:14:59;;;;;;;1999.90;999.90;;;;;;;;;;5051368;28;20563;-59
2023/03/12 11:17:27;;;;;;;1999.90;999.90;;;;;;;;;;5050879;28;20194;-60
2023/03/12 11:19:55;;;;;;;1999.90;999.90;;;;;;;;;;5041507;28;20219;-60
2023/03/12 11:22:28;;;;;;;1999.90;999.90;;;;;;;;;;5043642;28;20561;-60
2023/03/12 11:24:57;;;;;;;1999.90;999.90;;;;;;;;;;5052912;28;20190;-59
2023/03/12 11:27:27;;;;;;;1999.90;999.90;;;;;;;;;;5043218;28;20205;-60
2023/03/12 11:29:56;;;;;;;1999.90;999.90;;;;;;;;;;5050710;28;20578;-60
2023/03/12 11:32:25;;;;;;;1999.90;999.90;;;;;;;;;;5046850;28;20195;-60
2023/03/12 11:34:52;;;;;;;1999.90;999.90;;;;;;;;;;5044450;28;20210;-59
2023/03/12 11:37:25;;;;;;;1999.90;999.90;;;;;;;;;;5040189;28;20218;-60
2023/03/12 11:39:59;;;;;;;1999.90;999.90;;;;;;;;;;5042262;28;20241;-60
2023/03/12 11:42:34;;;;;;;1999.90;999.90;;;;;;;;;;5044112;28;20627;-59
2023/03/12 11:45:06;;;;;;;1999.90;999.90;;;;;;;;;;5049684;28;20560;-59
2023/03/12 11:47:40;;;;;;;1999.90;999.90;;;;;;;;;;5051003;28;20281;-60
2023/03/12 11:50:15;;;;;;;1999.90;999.90;;;;;;;;;;5046643;28;20222;-59
2023/03/12 11:52:48;;;;;;;1999.90;999.90;;;;;;;;;;5047105;28;20205;-60
2023/03/12 11:55:20;;;;;;;1999.90;999.90;;;;;;;;;;5042748;28;20201;-59
2023/03/12 11:57:52;;;;;;;1999.90;999.90;;;;;;;;;;5046065;28;20213;-59
2023/03/12 12:00:25;;;;;;;1999.90;999.90;;;;;;;;;;5040875;28;20475;-59
2023/03/12 12:03:19;;;;;;;1999.90;999.90;;;;;;;;;;5046711;28;20192;-60
2023/03/12 12:05:53;;;;;;;1999.90;999.90;;;;;;;;;;5015032;28;20198;-59
2023/03/12 12:08:36;;;;;;;1999.90;999.90;;;;;;;;;;5049620;28;20194;-60
2023/03/12 12:11:06;;;;;;;1999.90;999.90;;;;;;;;;;5042838;28;20198;-60
2023/03/12 12:13:38;;;;;;;1999.90;999.90;;;;;;;;;;5049447;28;20215;-60
2023/03/12 12:16:16;;;;;;;1999.90;999.90;;;;;;;;;;5050606;28;20206;-60
2023/03/12 12:18:51;;;;;;;1999.90;999.90;;;;;;;;;;5045036;28;20559;-60
2023/03/12 12:21:26;;;;;;;1999.90;999.90;;;;;;;;;;5047193;28;20671;-60
2023/03/12 12:23:59;;;;;;;1999.90;999.90;;;;;;;;;;5048277;28;20197;-60
2023/03/12 12:26:31;;;;;;;1999.90;999.90;;;;;;;;;;5039610;28;20903;-60
2023/03/12 12:29:04;;;;;;;1999.90;999.90;;;;;;;;;;5042074;28;20234;-60
2023/03/12 12:31:36;;;;;;;1999.90;999.90;;;;;;;;;;5041315;28;20205;-61
2023/03/12 12:34:20;;;;;;;1999.90;999.90;;;;;;;;;;5049123;28;20222;-60
2023/03/12 12:36:50;;;;;;;1999.90;999.90;;;;;;;;;;5043355;28;20562;-60
2023/03/12 12:39:20;;;;;;;1999.90;999.90;;;;;;;;;;5049095;28;20646;-60
2023/03/12 12:41:50;;;;;;;1999.90;999.90;;;;;;;;;;5049032;28;20194;-60
2023/03/12 12:44:19;;;;;;;1999.90;999.90;;;;;;;;;;5047875;28;20194;-61
2023/03/12 12:46:49;;;;;;;1999.90;999.90;;;;;;;;;;5047318;28;20556;-61
2023/03/12 12:49:19;;;;;;;1999.90;999.90;;;;;;;;;;5043943;28;20250;-61
2023/03/12 12:51:49;;;;;;;1999.90;999.90;;;;;;;;;;5041824;28;20282;-62
2023/03/12 12:54:21;;;;;;;1999.90;999.90;;;;;;;;;;5047045;28;20221;-62
2023/03/12 12:56:51;;;;;;;1999.90;999.90;;;;;;;;;;5042887;28;20202;-62
2023/03/12 12:59:26;;;;;;;1999.90;999.90;;;;;;;;;;5045105;28;20221;-61
2023/03/12 13:01:55;;;;;;;1999.90;999.90;;;;;;;;;;5046458;28;20205;-60
2023/03/12 13:04:25;;;;;;;1999.90;999.90;;;;;;;;;;5045607;28;20210;-61
2023/03/12 13:06:56;;;;;;;1999.90;999.90;;;;;;;;;;5041859;28;20672;-61
2023/03/12 13:09:24;;;;;;;1999.90;999.90;;;;;;;;;;5041569;28;20222;-61
2023/03/12 13:11:51;;;;;;;1999.90;999.90;;;;;;;;;;5043783;28;20260;-63
2023/03/12 13:14:39;;;;;;;1999.90;999.90;;;;;;;;;;5047105;28;20213;-63
2023/03/12 13:17:20;;;;;;;1999.90;999.90;;;;;;;;;;5039093;28;20210;-63
2023/03/12 13:19:49;;;;;;;1999.90;999.90;;;;;;;;;;5050946;28;20211;-63
2023/03/12 13:22:21;;;;;;;1999.90;999.90;;;;;;;;;;5050415;28;20242;-63
2023/03/12 13:24:53;;;;;;;1999.90;999.90;;;;;;;;;;5046998;28;20202;-63
2023/03/12 13:27:23;;;;;;;1999.90;999.90;;;;;;;;;;5040416;28;20209;-63
2023/03/12 13:29:55;;;;;;;1999.90;999.90;;;;;;;;;;5048670;28;20222;-63
2023/03/12 13:33:00;;;;;;;1999.90;999.90;;;;;;;;;;5047093;28;20229;-62
2023/03/12 13:35:33;;;;;;;1999.90;999.90;;;;;;;;;;5040440;28;20218;-62
2023/03/12 13:38:05;;;;;;;1999.90;999.90;;;;;;;;;;5042696;28;20567;-61
2023/03/12 13:40:50;;;;;;;1999.90;999.90;;;;;;;;;;5044785;28;20268;-63
2023/03/12 13:43:32;;;;;;;1999.90;999.90;;;;;;;;;;5043099;28;20198;-63
2023/03/12 13:46:01;;;;;;;1999.90;999.90;;;;;;;;;;5045905;28;20198;-63
2023/03/12 13:48:28;;;;;;;1999.90;999.90;;;;;;;;;;5047528;28;20205;-62
2023/03/12 13:50:58;;;;;;;1999.90;999.90;;;;;;;;;;5051134;28;20210;-62
2023/03/12 13:53:27;;;;;;;1999.90;999.90;;;;;;;;;;5045797;28;20652;-62
2023/03/12 13:56:01;;;;;;;1999.90;999.90;;;;;;;;;;5045507;28;20190;-62
2023/03/12 13:58:29;;;;;;;1999.90;999.90;;;;;;;;;;5044883;28;20694;-62
2023/03/12 14:00:57;;;;;;;1999.90;999.90;;;;;;;;;;5053592;28;20195;-62
2023/03/12 14:03:26;;;;;;;1999.90;999.90;;;;;;;;;;5044413;28;20568;-62
2023/03/12 14:05:55;;;;;;;1999.90;999.90;;;;;;;;;;5048273;28;20290;-61
2023/03/12 14:08:33;;;;;;;1999.90;999.90;;;;;;;;;;5050503;28;20574;-61
2023/03/12 14:11:05;;;;;;;1999.90;999.90;;;;;;;;;;5050244;28;20563;-61